Time;durP1;ratioP1;P1;durP2;ratioP2;P2;SDS_P1;SDS_P2;PMS_P1;PMS_P2;Temp;Humidity;BMP_temperature;BMP_pressure;BME280_temperature;BME280_humidity;BME280_pressure;Samples;Min_cycle;Max_cycle;Signal;HPM_P1;HPM_P2
2022/06/07 00:01:17;;;;;;;3.55;1.70;;;;;;;18.81;61.42;101044.75;4958289;29;20078;-64
2022/06/07 00:03:45;;;;;;;4.63;1.30;;;;;;;18.83;61.70;101043.19;4958304;29;20070;-64
2022/06/07 00:06:13;;;;;;;7.50;1.75;;;;;;;18.85;62.34;101037.25;4958084;29;20051;-64
2022/06/07 00:08:41;;;;;;;5.88;1.40;;;;;;;18.91;61.67;101036.63;4972881;28;20058;-64
2022/06/07 00:11:09;;;;;;;5.45;1.30;;;;;;;18.76;62.37;101034.63;4957013;29;20554;-65
2022/06/07 00:13:36;;;;;;;3.30;1.08;;;;;;;18.72;63.05;101035.72;4958221;29;20058;-64
2022/06/07 00:16:04;;;;;;;3.40;0.85;;;;;;;18.67;63.47;101034.00;4988297;28;20059;-64
2022/06/07 00:18:31;;;;;;;3.42;1.20;;;;;;;18.66;63.97;101035.19;4958371;28;20510;-64
2022/06/07 00:21:01;;;;;;;2.25;0.95;;;;;;;18.73;63.73;101028.97;4972774;28;20050;-64
2022/06/07 00:23:29;;;;;;;3.97;1.00;;;;;;;18.58;64.14;101030.59;4957906;29;20055;-63
2022/06/07 00:25:56;;;;;;;3.78;1.20;;;;;;;18.67;64.18;101027.63;4940366;29;20074;-64
2022/06/07 00:28:25;;;;;;;3.80;0.95;;;;;;;18.61;64.36;101023.47;4956347;29;20495;-65
2022/06/07 00:30:53;;;;;;;2.90;1.08;;;;;;;18.46;64.81;101018.72;4956126;29;20062;-64
2022/06/07 00:33:21;;;;;;;2.45;0.90;;;;;;;18.50;65.01;101019.59;4957787;29;20054;-63
2022/06/07 00:35:48;;;;;;;3.10;0.90;;;;;;;18.58;64.91;101016.66;4971955;28;20063;-63
2022/06/07 00:38:16;;;;;;;5.72;1.10;;;;;;;18.52;65.19;101018.09;4955657;28;20543;-64
2022/06/07 00:40:43;;;;;;;2.90;1.00;;;;;;;18.60;64.83;101005.13;4972243;28;20058;-64
2022/06/07 00:43:10;;;;;;;3.70;1.10;;;;;;;18.44;65.22;101007.91;4971969;28;20055;-63
2022/06/07 00:45:39;;;;;;;3.60;1.20;;;;;;;18.37;65.97;101010.50;4957668;29;20055;-64
2022/06/07 00:48:08;;;;;;;2.25;0.98;;;;;;;18.33;65.90;101003.19;4957521;28;20063;-64
2022/06/07 00:50:55;;;;;;;3.70;1.10;;;;;;;18.33;66.45;100995.63;4956177;29;20380;-63
2022/06/07 00:53:27;;;;;;;2.85;0.90;;;;;;;18.36;66.36;100996.91;4956215;29;20055;-65
2022/06/07 00:56:01;;;;;;;4.00;1.10;;;;;;;18.31;66.27;100999.94;4955978;29;20055;-63
2022/06/07 00:58:30;;;;;;;3.70;1.00;;;;;;;18.24;66.99;100986.63;4956249;29;20055;-63
2022/06/07 01:00:59;;;;;;;8.32;0.90;;;;;;;18.16;67.38;100984.00;4987903;28;20073;-63
2022/06/07 01:03:27;;;;;;;3.58;0.90;;;;;;;18.16;67.64;100984.00;4971553;28;20062;-64
2022/06/07 01:10:43;;;;;;;4.28;1.05;;;;;;;18.31;67.10;100981.22;4955917;29;20051;-63
2022/06/07 01:11:29;;;;;;;2.13;1.00;;;;;;;18.22;67.38;100983.38;4987567;28;20051;-63
2022/06/07 01:13:57;;;;;;;4.05;1.08;;;;;;;18.15;67.80;100974.81;4956081;28;20055;-63
2022/06/07 01:16:29;;;;;;;5.60;1.13;;;;;;;18.16;68.09;100976.47;4971851;28;20059;-64
2022/06/07 01:18:57;;;;;;;3.42;1.17;;;;;;;18.03;68.89;100976.91;4958985;28;20046;-64
2022/06/07 01:21:41;;;;;;;2.38;1.17;;;;;;;17.99;68.90;100974.81;4958798;28;20050;-63
2022/06/07 01:24:12;;;;;;;5.00;1.27;;;;;;;18.12;68.54;100971.94;4959700;28;20070;-64
2022/06/07 01:26:50;;;;;;;1.95;0.93;;;;;;;18.22;68.02;100977.00;4958525;28;20047;-63
2022/06/07 01:29:18;;;;;;;3.70;1.30;;;;;;;18.28;67.98;100972.78;4991321;28;20069;-64
2022/06/07 01:31:46;;;;;;;2.35;1.00;;;;;;;18.18;68.02;100971.34;4976000;28;20051;-63
2022/06/07 01:34:17;;;;;;;4.28;1.23;;;;;;;18.19;68.22;100966.56;4990227;28;20055;-64
2022/06/07 01:36:44;;;;;;;2.13;0.98;;;;;;;18.18;68.25;100970.53;4958639;28;20054;-64
2022/06/07 01:41:58;;;;;;;3.75;1.05;;;;;;;18.11;68.59;100976.72;4974296;28;20478;-65
2022/06/07 01:44:41;;;;;;;3.38;1.20;;;;;;;18.16;68.58;100973.69;4958335;28;20051;-66
2022/06/07 01:47:11;;;;;;;4.47;1.35;;;;;;;18.06;69.42;100973.38;4991277;28;20446;-65
2022/06/07 01:49:50;;;;;;;4.65;1.42;;;;;;;17.99;69.47;100971.22;4958417;28;20051;-64
2022/06/07 01:52:20;;;;;;;3.83;1.33;;;;;;;18.03;69.64;100960.97;4958707;28;20046;-63
2022/06/07 01:54:51;;;;;;;2.85;1.10;;;;;;;17.98;70.05;100961.22;4974797;28;20055;-63
2022/06/07 01:57:20;;;;;;;3.20;1.42;;;;;;;18.12;69.40;100958.00;4974660;28;20062;-64
2022/06/07 01:59:50;;;;;;;2.50;1.10;;;;;;;18.11;69.45;100957.22;4976448;28;20046;-64
2022/06/07 02:02:24;;;;;;;3.17;1.58;;;;;;;18.15;69.26;100958.09;4993110;28;20910;-63
2022/06/07 02:04:52;;;;;;;3.08;1.30;;;;;;;18.25;68.81;100952.00;4979699;28;20120;-64
2022/06/07 02:07:21;;;;;;;2.97;1.40;;;;;;;18.26;68.67;100952.81;4978074;28;20066;-64
2022/06/07 02:09:54;;;;;;;3.42;1.40;;;;;;;18.13;69.00;100951.28;4978519;28;20058;-64
2022/06/07 02:12:22;;;;;;;3.42;1.27;;;;;;;18.23;69.02;100945.16;4977557;28;20054;-65
2022/06/07 02:14:50;;;;;;;2.95;1.20;;;;;;;18.09;69.75;100940.03;4978325;28;20061;-64
2022/06/07 02:17:19;;;;;;;3.47;1.27;;;;;;;18.17;69.73;100941.00;4978446;28;20483;-64
2022/06/07 02:20:02;;;;;;;3.10;1.10;;;;;;;18.23;69.11;100934.81;4989082;28;20057;-64
2022/06/07 02:22:30;;;;;;;5.03;1.20;;;;;;;18.20;69.48;100934.72;4979463;28;20058;-64
2022/06/07 02:24:57;;;;;;;3.92;1.30;;;;;;;18.36;68.99;100929.97;4993995;28;20077;-64
2022/06/07 02:27:24;;;;;;;4.82;1.42;;;;;;;18.26;69.37;100931.31;4979205;28;20051;-63
2022/06/07 02:29:52;;;;;;;4.05;1.08;;;;;;;18.16;69.68;100929.06;4979287;28;20050;-64
2022/06/07 02:32:24;;;;;;;3.88;1.52;;;;;;;18.18;69.72;100935.09;4977497;28;20051;-64
2022/06/07 02:34:55;;;;;;;4.18;1.15;;;;;;;18.23;69.45;100929.25;4994166;28;20065;-65
2022/06/07 02:37:24;;;;;;;3.55;1.30;;;;;;;18.12;70.11;100930.94;4977933;28;20059;-65
2022/06/07 02:39:52;;;;;;;5.88;1.63;;;;;;;18.05;70.07;100916.81;4962071;28;20479;-69
2022/06/07 02:42:20;;;;;;;4.53;1.33;;;;;;;18.24;69.48;100921.66;4993622;28;20158;-70
2022/06/07 02:44:48;;;;;;;2.78;1.30;;;;;;;18.11;69.89;100909.81;4961723;28;20047;-70
2022/06/07 02:47:15;;;;;;;4.20;1.30;;;;;;;18.18;69.78;100907.22;4977608;28;20379;-64
2022/06/07 02:49:47;;;;;;;5.40;1.20;;;;;;;18.20;69.63;100907.63;4961319;28;20061;-63
2022/06/07 02:52:15;;;;;;;4.95;1.70;;;;;;;18.10;70.27;100904.59;4977292;28;20054;-66
2022/06/07 02:54:49;;;;;;;2.47;1.40;;;;;;;18.07;70.07;100900.53;4977326;28;20079;-64
2022/06/07 02:57:17;;;;;;;4.43;1.58;;;;;;;18.10;70.75;100897.03;4977284;28;20047;-64
2022/06/07 02:59:46;;;;;;;4.85;1.45;;;;;;;18.18;70.00;100901.63;4977379;28;20062;-63
2022/06/07 03:02:14;;;;;;;3.75;1.48;;;;;;;18.23;69.96;100895.78;4977368;28;20058;-65
2022/06/07 03:04:41;;;;;;;3.97;1.55;;;;;;;18.25;69.94;100892.63;4978555;28;20061;-65
2022/06/07 03:07:09;;;;;;;4.35;1.45;;;;;;;18.17;69.95;100891.63;4961130;28;20054;-63
2022/06/07 03:09:37;;;;;;;10.85;2.03;;;;;;;18.19;70.35;100885.69;4977229;28;20058;-65
2022/06/07 03:12:05;;;;;;;4.40;1.77;;;;;;;18.07;70.30;100889.41;4976977;28;20058;-64
2022/06/07 03:14:33;;;;;;;5.30;1.67;;;;;;;18.11;70.63;100895.06;4977260;28;20446;-64
2022/06/07 03:17:02;;;;;;;3.80;1.73;;;;;;;18.16;70.21;100890.03;4960470;28;20058;-64
2022/06/07 03:19:34;;;;;;;5.03;1.55;;;;;;;18.12;70.65;100891.91;4973040;28;20059;-70
2022/06/07 03:22:04;;;;;;;;;;;;;;;18.13;70.66;100884.38;4973451;28;20063;-63
2022/06/07 03:24:32;;;;;;;4.43;2.08;;;;;;;18.11;70.87;100895.06;4973880;28;19922;-64
2022/06/07 03:26:59;;;;;;;6.70;2.30;;;;;;;18.31;70.01;100899.53;4972767;28;20059;-64
2022/06/07 03:29:27;;;;;;;6.10;2.08;;;;;;;18.18;70.73;100898.03;4973761;28;20058;-64
2022/06/07 03:31:54;;;;;;;4.07;1.70;;;;;;;18.05;70.98;100894.50;4957243;28;20043;-70
2022/06/07 03:34:26;;;;;;;4.35;1.88;;;;;;;18.17;70.44;100893.59;4973620;28;20731;-64
2022/06/07 03:36:53;;;;;;;5.47;1.73;;;;;;;18.13;71.08;100890.75;4957302;28;20054;-64
2022/06/07 03:39:22;;;;;;;5.72;1.67;;;;;;;18.12;71.11;100885.50;4973489;28;20051;-70
2022/06/07 03:42:01;;;;;;;4.95;2.00;;;;;;;18.10;71.77;100890.66;4971152;28;20051;-70
2022/06/07 03:44:30;;;;;;;4.38;1.70;;;;;;;18.12;71.54;100888.31;4973393;28;20062;-69
2022/06/07 03:47:08;;;;;;;3.75;1.65;;;;;;;18.25;71.43;100887.88;4973373;28;20066;-70
2022/06/07 03:49:35;;;;;;;4.78;1.67;;;;;;;18.25;70.88;100895.44;4973354;28;20066;-64
2022/06/07 03:52:03;;;;;;;4.35;1.58;;;;;;;18.24;71.09;100894.59;4957968;29;20050;-63
2022/06/07 03:54:35;;;;;;;4.65;1.85;;;;;;;18.12;72.08;100891.09;4957724;28;20054;-70
2022/06/07 03:57:03;;;;;;;7.03;1.70;;;;;;;18.23;71.90;100895.78;4988884;28;20055;-65
2022/06/07 03:59:34;;;;;;;4.13;1.65;;;;;;;18.05;72.57;100902.88;4973082;28;20063;-64
2022/06/07 04:02:01;;;;;;;6.60;1.70;;;;;;;17.93;73.01;100902.97;4956659;29;20047;-70
2022/06/07 04:04:29;;;;;;;7.10;2.00;;;;;;;18.09;72.95;100894.59;4956992;29;20058;-63
2022/06/07 04:09:52;;;;;;;3.10;1.50;;;;;;;18.18;73.09;100900.81;4973246;28;20058;-64
2022/06/07 04:12:24;;;;;;;5.85;2.17;;;;;;;18.22;73.43;100902.50;4956498;29;20063;-64
2022/06/07 04:14:54;;;;;;;5.10;1.90;;;;;;;18.22;73.95;100898.94;4972714;28;20055;-64
2022/06/07 04:17:22;;;;;;;4.18;1.80;;;;;;;18.22;74.34;100899.72;4972967;28;20058;-64
2022/06/07 04:19:56;;;;;;;4.53;2.38;;;;;;;18.09;75.56;100902.97;4970636;28;20065;-64
2022/06/07 04:22:24;;;;;;;6.85;2.20;;;;;;;18.06;76.00;100895.34;4991326;28;20055;-63
2022/06/07 04:25:00;;;;;;;3.90;2.03;;;;;;;18.03;75.99;100902.41;4958833;28;20058;-65
2022/06/07 04:27:30;;;;;;;;;;;;;;;17.89;77.30;100900.09;4959690;28;20059;-64
2022/06/07 04:29:58;;;;;;;4.75;2.10;;;;;;;17.98;77.35;100909.09;4976683;28;19922;-63
2022/06/07 04:32:25;;;;;;;4.18;1.73;;;;;;;17.90;78.80;100906.47;4975452;28;20862;-64
2022/06/07 04:34:54;;;;;;;5.20;1.80;;;;;;;18.09;78.34;100903.78;4975109;28;20069;-65
2022/06/07 04:37:23;;;;;;;6.30;2.22;;;;;;;17.78;80.34;100895.41;4975835;28;20046;-64
2022/06/07 04:39:54;;;;;;;9.13;2.38;;;;;;;17.73;80.75;100896.47;4975447;28;20542;-65
2022/06/07 04:42:22;;;;;;;3.72;2.03;;;;;;;17.73;81.56;100904.81;4991174;28;20043;-64
2022/06/07 04:44:58;;;;;;;3.80;2.03;;;;;;;17.72;82.23;100899.59;4991481;28;20059;-64
2022/06/07 04:47:44;;;;;;;4.32;2.08;;;;;;;17.71;82.92;100909.13;4975565;28;20525;-64
2022/06/07 04:50:16;;;;;;;6.13;1.87;;;;;;;17.68;83.52;100896.72;4975908;28;20042;-66
2022/06/07 04:52:45;;;;;;;7.15;2.13;;;;;;;17.60;84.47;100900.50;4975344;28;20054;-70
2022/06/07 04:55:14;;;;;;;5.30;2.30;;;;;;;17.60;84.67;100897.69;4959391;28;20051;-70
2022/06/07 04:57:42;;;;;;;3.78;2.10;;;;;;;17.64;85.30;100895.81;4975494;28;20057;-71
2022/06/07 05:00:18;;;;;;;4.75;2.20;;;;;;;17.74;84.82;100891.69;4976045;28;20051;-71
2022/06/07 05:02:53;;;;;;;3.92;2.10;;;;;;;17.67;84.88;100892.31;4990441;28;20054;-70
2022/06/07 05:05:21;;;;;;;3.80;2.38;;;;;;;17.74;84.16;100894.50;4974699;28;20442;-64
2022/06/07 05:07:49;;;;;;;4.32;2.22;;;;;;;17.87;83.90;100898.81;4975209;28;20051;-65
2022/06/07 05:10:20;;;;;;;4.13;2.20;;;;;;;17.76;84.14;100892.97;4991515;28;20061;-65
2022/06/07 05:12:57;;;;;;;5.35;2.05;;;;;;;17.88;83.54;100892.09;4974757;28;20051;-64
2022/06/07 05:15:28;;;;;;;4.35;2.28;;;;;;;18.00;82.99;100897.56;4975220;28;20055;-70
2022/06/07 05:18:01;;;;;;;4.50;2.53;;;;;;;17.91;82.98;100896.94;4976525;28;20047;-65
2022/06/07 05:20:31;;;;;;;9.18;2.35;;;;;;;17.96;82.42;100902.25;4975736;28;20050;-63
2022/06/07 05:23:08;;;;;;;4.82;2.00;;;;;;;17.81;82.75;100892.72;4945493;28;20051;-64
2022/06/07 05:25:38;;;;;;;5.35;2.20;;;;;;;17.88;83.33;100900.44;4974998;28;20521;-70
2022/06/07 05:28:08;;;;;;;7.80;3.30;;;;;;;17.86;83.47;100908.34;4942433;28;20050;-71
2022/06/07 05:30:35;;;;;;;5.45;2.00;;;;;;;18.01;82.53;100898.38;4991173;28;20501;-71
2022/06/07 05:33:23;;;;;;;4.47;1.85;;;;;;;17.92;83.18;100909.72;4961481;28;20055;-65
2022/06/07 05:35:56;;;;;;;3.25;2.00;;;;;;;17.91;82.73;100905.28;4978471;28;20054;-64
2022/06/07 05:38:23;;;;;;;4.15;1.90;;;;;;;17.99;82.22;100907.91;4980057;28;20055;-64
2022/06/07 05:41:03;;;;;;;9.25;2.33;;;;;;;18.10;82.58;100907.41;4978643;28;20050;-64
2022/06/07 05:43:32;;;;;;;7.35;3.10;;;;;;;18.13;82.20;100903.88;4995152;28;20066;-65
2022/06/07 05:46:00;;;;;;;6.47;2.97;;;;;;;18.14;81.51;100916.63;4979232;28;20406;-64
2022/06/07 05:48:43;;;;;;;4.95;2.15;;;;;;;18.08;81.73;100909.72;4964729;28;20046;-64
2022/06/07 05:51:15;;;;;;;5.43;1.80;;;;;;;18.13;80.98;100923.41;4970828;28;20061;-65
2022/06/07 05:53:45;;;;;;;6.53;1.67;;;;;;;18.21;80.58;100914.03;4994899;28;20062;-63
2022/06/07 05:56:14;;;;;;;5.70;1.80;;;;;;;18.16;80.43;100922.66;4963168;28;20062;-66
2022/06/07 05:58:42;;;;;;;6.13;1.60;;;;;;;18.40;79.44;100920.53;4979867;28;20057;-64
2022/06/07 06:01:13;;;;;;;5.50;2.10;;;;;;;18.56;78.54;100918.56;4994793;28;20387;-71
2022/06/07 06:03:43;;;;;;;9.98;4.80;;;;;;;18.37;79.32;100917.63;4963097;28;20055;-71
2022/06/07 06:06:13;;;;;;;6.53;2.97;;;;;;;18.30;79.55;100921.06;4994411;28;20483;-65
2022/06/07 06:11:36;;;;;;;6.03;2.35;;;;;;;18.19;79.25;100924.72;4978238;28;20051;-65
2022/06/07 06:14:12;;;;;;;5.53;2.00;;;;;;;18.27;78.48;100918.19;4993182;28;20517;-66
2022/06/07 06:16:46;;;;;;;5.45;2.22;;;;;;;18.10;79.61;100924.91;4978526;28;20055;-64
2022/06/07 06:19:22;;;;;;;5.85;2.03;;;;;;;18.01;81.00;100926.25;4978236;28;20054;-64
2022/06/07 06:21:50;;;;;;;6.70;3.35;;;;;;;18.02;81.35;100925.09;4994422;28;20042;-64
2022/06/07 06:24:23;;;;;;;6.17;2.13;;;;;;;17.99;81.05;100932.19;4994555;28;20058;-65
2022/06/07 06:26:54;;;;;;;5.90;2.63;;;;;;;17.92;82.22;100940.38;4978626;28;20054;-64
2022/06/07 06:29:24;;;;;;;6.70;2.10;;;;;;;18.08;81.65;100935.59;4979365;28;20059;-65
2022/06/07 06:31:54;;;;;;;6.05;2.13;;;;;;;18.08;81.71;100941.19;4994214;28;20495;-65
2022/06/07 06:34:29;;;;;;;7.03;2.70;;;;;;;18.27;81.69;100938.50;4978072;28;20070;-65
2022/06/07 06:36:59;;;;;;;6.88;3.75;;;;;;;18.45;80.59;100947.34;4977964;28;20066;-64
2022/06/07 06:39:29;;;;;;;8.65;2.70;;;;;;;18.26;81.58;100947.22;4978032;28;20054;-63
2022/06/07 06:41:56;;;;;;;10.13;2.60;;;;;;;18.03;83.56;100957.38;4961366;28;20070;-64
2022/06/07 06:44:38;;;;;;;9.18;2.80;;;;;;;18.12;83.10;100956.03;4977680;28;20046;-64
2022/06/07 06:47:07;;;;;;;7.95;2.63;;;;;;;18.05;82.98;100955.03;4978980;28;20515;-66
2022/06/07 06:49:34;;;;;;;9.60;2.50;;;;;;;18.20;81.91;100957.03;4993984;28;20502;-64
2022/06/07 06:52:09;;;;;;;6.20;2.78;;;;;;;18.09;82.19;100962.34;4961207;28;20054;-65
2022/06/07 06:54:38;;;;;;;5.95;2.30;;;;;;;18.15;82.21;100960.88;4977562;28;20054;-64
2022/06/07 06:57:11;;;;;;;4.15;1.83;;;;;;;18.21;82.95;100953.06;4977488;28;20050;-63
2022/06/07 06:59:39;;;;;;;7.57;2.10;;;;;;;18.13;82.80;100962.44;4961531;28;20061;-64
2022/06/07 07:02:14;;;;;;;8.68;2.28;;;;;;;18.04;82.93;100956.22;4960767;28;20073;-64
2022/06/07 07:04:58;;;;;;;5.55;2.03;;;;;;;18.16;83.66;100958.91;4993535;28;20061;-65
2022/06/07 07:07:27;;;;;;;6.20;2.20;;;;;;;18.25;82.64;100967.91;4960972;28;20050;-64
2022/06/07 07:09:55;;;;;;;5.82;1.80;;;;;;;18.24;82.98;100960.72;4993295;28;20391;-63
2022/06/07 07:12:23;;;;;;;8.38;1.70;;;;;;;18.37;81.22;100973.41;4978257;28;20049;-63
2022/06/07 07:14:56;;;;;;;6.70;1.88;;;;;;;18.33;80.44;100969.72;4977209;28;20050;-64
2022/06/07 07:17:31;;;;;;;4.95;1.55;;;;;;;18.17;80.88;100974.47;4977337;28;20046;-64
2022/06/07 07:20:00;;;;;;;5.65;1.40;;;;;;;18.09;81.38;100975.44;4977192;28;20050;-65
2022/06/07 07:22:32;;;;;;;4.72;1.55;;;;;;;18.24;80.92;100971.88;4993375;28;20429;-64
2022/06/07 07:24:59;;;;;;;8.85;2.00;;;;;;;18.30;80.29;100971.25;4944829;28;20058;-65
2022/06/07 07:27:29;;;;;;;5.95;1.73;;;;;;;18.43;79.11;100969.22;4992948;28;20050;-66
2022/06/07 07:29:57;;;;;;;6.77;1.50;;;;;;;18.44;79.29;100960.50;4976655;28;20051;-65
2022/06/07 07:32:26;;;;;;;6.75;1.67;;;;;;;18.52;77.59;100962.28;4976660;28;20058;-64
2022/06/07 07:34:55;;;;;;;5.50;1.63;;;;;;;18.52;77.06;100961.47;4960918;28;20051;-64
2022/06/07 07:37:27;;;;;;;4.57;1.50;;;;;;;18.47;75.30;100968.13;4976506;28;20059;-65
2022/06/07 07:40:06;;;;;;;5.43;1.75;;;;;;;18.72;74.55;100964.00;4992838;28;20525;-64
2022/06/07 07:42:34;;;;;;;4.35;1.33;;;;;;;18.72;75.17;100972.38;4960378;28;20051;-65
2022/06/07 07:45:12;;;;;;;3.35;1.00;;;;;;;18.87;75.22;100962.34;4976794;28;20054;-64
2022/06/07 07:47:42;;;;;;;5.40;1.30;;;;;;;18.91;74.27;100961.25;4960770;28;20061;-64
2022/06/07 07:50:11;;;;;;;4.80;1.55;;;;;;;18.78;75.89;100964.50;4978072;28;20050;-65
2022/06/07 07:52:43;;;;;;;5.63;1.55;;;;;;;19.23;73.61;100973.13;4976379;28;20046;-65
2022/06/07 07:55:13;;;;;;;6.03;1.73;;;;;;;19.27;73.94;100974.03;4977787;28;20049;-64
2022/06/07 07:57:43;;;;;;;4.20;1.35;;;;;;;19.13;74.61;100973.72;4991937;28;20066;-64
2022/06/07 08:00:14;;;;;;;3.63;1.60;;;;;;;19.21;75.08;100972.72;4976506;28;20069;-65
2022/06/07 08:02:52;;;;;;;4.35;1.73;;;;;;;19.12;74.66;100972.09;4976226;28;20080;-64
2022/06/07 08:05:43;;;;;;;4.07;1.40;;;;;;;19.11;74.67;100969.69;4959704;28;20066;-64
2022/06/07 08:08:11;;;;;;;7.47;1.77;;;;;;;18.88;75.28;100966.75;4977534;28;20081;-64
2022/06/07 08:10:39;;;;;;;3.05;1.38;;;;;;;19.01;74.54;100963.47;4976218;28;20050;-64
2022/06/07 08:13:07;;;;;;;3.10;1.10;;;;;;;19.12;73.59;100969.31;4977301;28;20402;-63
2022/06/07 08:15:35;;;;;;;5.50;1.30;;;;;;;18.89;74.42;100971.16;4977335;28;20069;-64
2022/06/07 08:18:04;;;;;;;4.03;1.38;;;;;;;18.79;74.39;100975.31;4977289;28;20392;-63
2022/06/07 08:20:35;;;;;;;3.47;1.35;;;;;;;19.02;74.42;100973.47;4990988;28;20054;-64
2022/06/07 08:23:04;;;;;;;4.05;1.38;;;;;;;18.97;74.64;100975.72;4996310;28;20062;-63
2022/06/07 08:25:33;;;;;;;4.40;1.33;;;;;;;19.12;74.78;100969.31;4996623;28;20050;-64
2022/06/07 08:28:02;;;;;;;5.13;1.80;;;;;;;19.56;73.48;100964.31;4996627;28;20313;-64
2022/06/07 08:30:32;;;;;;;3.17;1.38;;;;;;;19.52;72.21;100964.25;4995556;28;20394;-65
2022/06/07 08:37:32;;;;;;;6.65;1.58;;;;;;;19.54;72.07;100963.88;4995065;28;20046;-64
2022/06/07 08:38:34;;;;;;;7.57;2.20;;;;;;;19.92;70.71;100958.25;4994923;28;20062;-64
2022/06/07 08:41:01;;;;;;;3.33;1.27;;;;;;;19.74;69.47;100962.66;4993844;28;20046;-64
2022/06/07 08:43:29;;;;;;;4.40;1.10;;;;;;;19.67;68.55;100954.13;4994679;28;20053;-64
2022/06/07 08:45:57;;;;;;;5.85;1.17;;;;;;;19.70;67.76;100959.03;4978938;28;20054;-65
2022/06/07 08:48:28;;;;;;;6.25;1.55;;;;;;;19.56;68.78;100969.91;4996145;28;20069;-64
2022/06/07 08:51:08;;;;;;;4.07;1.20;;;;;;;19.47;69.54;100960.94;5010872;28;20057;-65
2022/06/07 08:53:39;;;;;;;6.13;1.92;;;;;;;19.45;69.37;100960.47;4962773;28;20048;-64
2022/06/07 08:56:16;;;;;;;5.88;2.30;;;;;;;19.68;69.20;100964.94;5010536;28;20065;-65
2022/06/07 08:58:49;;;;;;;4.78;1.33;;;;;;;19.49;68.95;100972.53;4996010;28;20058;-65
2022/06/07 09:01:38;;;;;;;7.07;1.63;;;;;;;19.15;69.72;100976.94;4994232;28;20387;-64
2022/06/07 09:04:19;;;;;;;5.05;1.85;;;;;;;19.25;68.01;100970.00;4994331;28;20402;-63
2022/06/07 09:06:56;;;;;;;3.70;1.10;;;;;;;19.42;66.64;100966.81;4995966;28;20069;-63
2022/06/07 09:12:25;;;;;;;4.38;0.90;;;;;;;19.37;64.89;100965.09;4984324;28;20074;-65
2022/06/07 09:15:03;;;;;;;3.35;1.08;;;;;;;19.31;65.76;100965.75;4978043;28;20050;-63
2022/06/07 09:17:37;;;;;;;5.07;1.33;;;;;;;19.95;64.47;100966.69;4994406;28;20054;-63
2022/06/07 09:20:14;;;;;;;1.70;0.90;;;;;;;19.97;62.33;100960.72;4975235;28;20055;-63
2022/06/07 09:22:49;;;;;;;2.58;0.90;;;;;;;19.98;61.83;100954.78;4976547;28;20050;-66
2022/06/07 09:25:21;;;;;;;3.53;1.17;;;;;;;19.90;62.00;100955.81;4990898;28;20062;-63
2022/06/07 09:27:49;;;;;;;4.63;1.00;;;;;;;19.91;61.96;100951.84;4974258;28;20055;-63
2022/06/07 09:30:19;;;;;;;3.58;0.98;;;;;;;20.14;60.69;100947.09;4976108;28;20123;-64
2022/06/07 09:32:50;;;;;;;4.13;1.10;;;;;;;20.10;59.17;100960.19;4990689;28;20055;-63
2022/06/07 09:35:20;;;;;;;4.18;0.95;;;;;;;20.44;59.08;100949.22;4990349;28;20066;-64
2022/06/07 09:37:59;;;;;;;6.50;1.17;;;;;;;20.37;57.39;100951.91;4973684;28;20423;-65
2022/06/07 09:40:30;;;;;;;4.45;0.90;;;;;;;19.98;57.13;100956.75;4968510;28;20050;-66
2022/06/07 09:43:02;;;;;;;2.78;0.70;;;;;;;19.98;57.26;100951.16;4974539;28;20046;-67
2022/06/07 09:45:43;;;;;;;2.88;0.90;;;;;;;19.91;57.63;100945.47;4976098;28;20438;-65
2022/06/07 09:48:25;;;;;;;3.80;1.20;;;;;;;20.43;58.06;100942.84;4974833;28;20065;-65
2022/06/07 09:51:01;;;;;;;2.90;0.90;;;;;;;20.73;57.70;100940.91;4958402;28;20069;-63
2022/06/07 09:53:39;;;;;;;4.68;1.50;;;;;;;20.97;57.36;100934.88;4974852;28;20047;-65
2022/06/07 09:56:38;;;;;;;4.97;1.20;;;;;;;21.38;56.52;100938.69;4974007;28;20051;-66
2022/06/07 09:59:16;;;;;;;3.92;1.45;;;;;;;21.69;53.88;100934.66;4974982;28;20047;-66
2022/06/07 10:02:12;;;;;;;5.03;1.15;;;;;;;21.59;54.14;100936.16;4990390;28;20062;-64
2022/06/07 10:05:11;;;;;;;3.38;1.13;;;;;;;21.72;53.26;100931.91;4974678;28;20495;-65
2022/06/07 10:08:01;;;;;;;3.22;1.00;;;;;;;20.91;55.47;100930.78;4971007;28;20051;-65
2022/06/07 10:10:40;;;;;;;8.18;1.10;;;;;;;20.81;56.41;100937.06;4967438;28;20062;-66
2022/06/07 10:13:38;;;;;;;3.13;1.02;;;;;;;21.03;55.77;100935.38;4974561;28;20073;-66
2022/06/07 10:16:16;;;;;;;5.78;1.10;;;;;;;20.77;55.33;100936.19;4975942;28;20047;-66
2022/06/07 10:19:17;;;;;;;2.72;0.80;;;;;;;20.59;55.24;100934.31;4985961;28;20062;-65
2022/06/07 10:21:57;;;;;;;2.33;0.75;;;;;;;20.84;54.52;100927.06;4973384;28;20042;-65
2022/06/07 10:24:27;;;;;;;4.65;1.30;;;;;;;21.07;53.46;100931.47;4979020;28;20068;-64
2022/06/07 10:26:58;;;;;;;;;;;;;;;21.00;53.69;100931.38;4979620;28;20055;-65
2022/06/07 10:29:34;;;;;;;;;;;;;;;20.86;54.92;100933.94;4979890;28;19929;-66
2022/06/07 10:32:11;;;;;;;2.55;0.90;;;;;;;20.93;55.20;100933.22;4979339;28;20618;-66
2022/06/07 10:35:11;;;;;;;4.90;1.00;;;;;;;21.18;54.26;100929.59;4978916;28;20438;-66
2022/06/07 10:38:29;;;;;;;7.20;1.20;;;;;;;21.06;54.94;100918.63;4993650;28;20062;-64
2022/06/07 10:41:02;;;;;;;4.65;1.80;;;;;;;21.33;53.10;100927.00;4976005;28;20634;-64
2022/06/07 10:43:37;;;;;;;8.35;4.90;;;;;;;21.56;52.56;100916.47;4977102;28;20047;-64
2022/06/07 10:46:08;;;;;;;10.25;4.47;;;;;;;21.17;52.12;100933.59;4961810;28;20410;-65
2022/06/07 10:49:05;;;;;;;3.67;1.83;;;;;;;20.70;53.55;100924.06;4977975;28;20066;-65
2022/06/07 10:54:47;;;;;;;7.45;2.55;;;;;;;21.49;53.07;100925.63;4993390;28;20058;-65
2022/06/07 10:57:44;;;;;;;4.72;1.25;;;;;;;20.73;53.12;100926.13;4972427;28;20070;-64
2022/06/07 11:00:30;;;;;;;6.95;1.38;;;;;;;20.66;53.16;100932.41;4959341;28;20059;-65
2022/06/07 11:03:06;;;;;;;4.95;1.50;;;;;;;20.54;53.66;100921.41;4960995;28;20410;-64
2022/06/07 11:11:13;;;;;;;2.97;0.98;;;;;;;21.15;52.63;100929.56;4977299;28;20054;-64
2022/06/07 11:13:53;;;;;;;4.88;1.20;;;;;;;21.20;53.81;100927.22;4977134;28;20059;-64
2022/06/07 11:16:30;;;;;;;3.22;1.05;;;;;;;21.61;52.09;100916.94;4978327;28;20055;-65
2022/06/07 11:19:02;;;;;;;5.07;1.10;;;;;;;21.83;51.42;100915.19;4960917;28;20069;-64
2022/06/07 11:21:40;;;;;;;3.75;1.02;;;;;;;22.18;50.85;100916.38;4978318;28;20723;-65
2022/06/07 11:24:18;;;;;;;5.07;1.50;;;;;;;22.43;50.44;100901.75;4978362;28;20138;-63
2022/06/07 11:26:52;;;;;;;3.10;1.10;;;;;;;22.57;49.16;100910.31;4978213;28;20046;-64
2022/06/07 11:29:24;;;;;;;2.35;1.00;;;;;;;22.15;48.10;100911.53;4978044;28;20055;-65
2022/06/07 11:31:52;;;;;;;3.05;1.10;;;;;;;22.10;47.90;100909.09;4959991;28;20066;-64
2022/06/07 11:34:36;;;;;;;2.47;0.95;;;;;;;22.28;47.91;100904.44;4976450;28;20054;-64
2022/06/07 11:37:15;;;;;;;2.05;0.80;;;;;;;22.68;46.81;100914.03;4977794;28;20051;-67
2022/06/07 11:39:43;;;;;;;2.80;0.67;;;;;;;22.26;46.19;100909.63;4978040;28;20061;-64
2022/06/07 11:42:13;;;;;;;2.30;0.68;;;;;;;22.28;46.91;100898.03;4976772;28;20051;-64
2022/06/07 11:44:45;;;;;;;2.55;0.60;;;;;;;21.96;47.11;100913.75;4977871;28;20054;-64
2022/06/07 11:47:14;;;;;;;2.63;1.02;;;;;;;22.14;46.59;100900.72;4992650;28;20059;-66
2022/06/07 11:49:57;;;;;;;2.78;0.82;;;;;;;22.22;46.96;100905.19;4977965;28;20074;-64
2022/06/07 11:52:33;;;;;;;4.55;1.00;;;;;;;22.48;46.79;100910.63;4977691;28;20054;-64
2022/06/07 11:55:15;;;;;;;4.43;0.88;;;;;;;22.14;46.56;100903.53;4977424;28;20053;-65
2022/06/07 11:58:04;;;;;;;3.60;1.40;;;;;;;22.35;46.70;100892.47;4945975;28;20061;-65
2022/06/07 12:00:31;;;;;;;5.00;1.13;;;;;;;22.74;46.57;100898.41;4992665;28;20054;-64
2022/06/07 12:03:01;;;;;;;3.97;0.82;;;;;;;22.78;46.44;100908.47;4977653;28;20503;-64
2022/06/07 12:05:45;;;;;;;;;;;;;;;22.37;46.96;100909.72;4976619;28;20050;-64
2022/06/07 12:08:34;;;;;;;7.47;1.40;;;;;;;22.22;48.28;100897.59;4977728;28;19922;-64
2022/06/07 12:11:20;;;;;;;4.70;0.80;;;;;;;22.03;48.80;100891.38;4976143;28;20430;-64
2022/06/07 12:13:56;;;;;;;2.50;0.70;;;;;;;22.07;48.21;100890.22;4977258;28;20054;-64
2022/06/07 12:16:36;;;;;;;2.33;0.50;;;;;;;22.14;46.41;100898.69;4977099;28;20051;-65
2022/06/07 12:19:15;;;;;;;3.25;0.90;;;;;;;21.78;47.04;100879.09;4977174;28;20454;-65